Time;durP1;ratioP1;P1;durP2;ratioP2;P2;SDS_P1;SDS_P2;PMS_P1;PMS_P2;Temp;Humidity;BMP_temperature;BMP_pressure;BME280_temperature;BME280_humidity;BME280_pressure;Samples;Min_cycle;Max_cycle;Signal;HPM_P1;HPM_P2
2022/03/25 00:01:37;;;;;;;31.38;8.27;;;;;;;4.90;100.00;98897.63;5000371;28;20048;-57
2022/03/25 00:04:03;;;;;;;38.67;9.00;;;;;;;5.63;100.00;98893.78;5002320;28;20030;-56
2022/03/25 00:06:28;;;;;;;34.25;9.98;;;;;;;5.29;100.00;98898.31;5004941;28;20030;-57
2022/03/25 00:08:53;;;;;;;31.85;8.80;;;;;;;5.43;100.00;98895.66;5001512;28;20034;-58
2022/03/25 00:11:19;;;;;;;39.83;10.18;;;;;;;5.67;100.00;98897.22;5001324;28;20033;-58
2022/03/25 00:13:44;;;;;;;33.38;9.73;;;;;;;4.83;100.00;98900.25;5006105;28;20089;-56
2022/03/25 00:16:10;;;;;;;27.83;8.75;;;;;;;5.16;100.00;98898.34;5003181;28;20083;-57
2022/03/25 00:18:35;;;;;;;35.38;9.77;;;;;;;4.89;100.00;98903.66;5003118;28;20032;-56
2022/03/25 00:21:01;;;;;;;30.92;7.15;;;;;;;5.74;100.00;98906.66;5001779;28;20132;-58
2022/03/25 00:23:26;;;;;;;36.00;8.55;;;;;;;5.67;100.00;98903.25;5003882;28;20029;-57
2022/03/25 00:25:52;;;;;;;29.48;7.57;;;;;;;5.57;100.00;98907.63;5000627;28;20046;-55
2022/03/25 00:28:17;;;;;;;28.83;8.10;;;;;;;5.28;100.00;98907.81;5000906;28;20025;-55
2022/03/25 00:30:43;;;;;;;32.00;7.70;;;;;;;5.59;100.00;98898.13;5000319;28;20091;-56
2022/03/25 00:33:09;;;;;;;29.88;9.10;;;;;;;4.64;100.00;98898.56;5003508;28;20045;-55
2022/03/25 00:35:34;;;;;;;34.13;7.50;;;;;;;5.59;100.00;98900.72;4998355;28;20033;-55
2022/03/25 00:38:00;;;;;;;40.28;10.10;;;;;;;4.96;100.00;98901.06;5005817;28;20025;-54
2022/03/25 00:40:26;;;;;;;27.00;7.38;;;;;;;5.90;100.00;98895.34;5002529;28;20042;-57
2022/03/25 00:42:52;;;;;;;29.38;9.40;;;;;;;5.25;100.00;98901.78;5000831;28;20065;-55
2022/03/25 00:45:17;;;;;;;20.80;6.53;;;;;;;5.87;100.00;98895.34;4998845;28;20072;-54
2022/03/25 00:47:43;;;;;;;34.70;9.65;;;;;;;4.83;100.00;98895.06;5003334;28;20028;-54
2022/03/25 00:50:10;;;;;;;29.48;9.10;;;;;;;4.61;100.00;98899.44;5005408;28;20094;-56
2022/03/25 00:52:36;;;;;;;30.55;9.20;;;;;;;4.15;100.00;98898.66;5000865;28;20096;-54
2022/03/25 00:55:01;;;;;;;34.20;9.45;;;;;;;3.92;100.00;98902.09;4998290;28;20966;-54
2022/03/25 00:57:27;;;;;;;32.45;10.20;;;;;;;4.00;100.00;98895.22;5004638;28;20065;-54
2022/03/25 00:59:53;;;;;;;42.95;10.82;;;;;;;3.77;100.00;98900.38;4999072;28;20025;-54
2022/03/25 01:02:18;;;;;;;34.00;9.55;;;;;;;3.93;100.00;98901.22;5003490;28;20042;-55
2022/03/25 01:04:44;;;;;;;36.47;9.60;;;;;;;4.31;100.00;98895.19;5002219;28;20029;-56
2022/03/25 01:07:09;;;;;;;35.25;10.40;;;;;;;3.57;100.00;98896.94;5001969;28;20041;-55
2022/03/25 01:09:35;;;;;;;37.63;10.38;;;;;;;3.26;100.00;98887.38;5004620;28;20052;-54
2022/03/25 01:12:00;;;;;;;42.38;10.93;;;;;;;3.26;100.00;98895.13;4999767;28;20042;-55
2022/03/25 01:14:27;;;;;;;36.42;10.30;;;;;;;3.36;100.00;98890.00;5001246;28;20456;-55
2022/03/25 01:16:52;;;;;;;40.22;10.70;;;;;;;3.71;100.00;98891.75;4997407;28;20044;-56
2022/03/25 01:19:19;;;;;;;36.33;10.38;;;;;;;3.63;100.00;98895.19;5004876;28;20137;-55
2022/03/25 01:21:45;;;;;;;37.75;10.73;;;;;;;3.36;100.00;98890.00;5002928;28;20129;-55
2022/03/25 01:24:11;;;;;;;32.17;8.50;;;;;;;4.01;100.00;98891.78;4998118;28;20108;-55
2022/03/25 01:26:36;;;;;;;35.65;10.45;;;;;;;4.13;100.00;98880.56;4999433;28;20074;-54
2022/03/25 01:29:02;;;;;;;36.58;11.45;;;;;;;3.63;100.00;98887.47;5003600;28;20033;-56
2022/03/25 01:31:27;;;;;;;34.90;11.00;;;;;;;3.51;100.00;98884.88;5003573;28;20107;-57
2022/03/25 01:33:53;;;;;;;42.03;12.13;;;;;;;3.30;100.00;98888.25;5000766;28;20091;-55
2022/03/25 01:36:19;;;;;;;41.90;12.23;;;;;;;3.09;100.00;98884.78;5000815;28;20049;-56
2022/03/25 01:38:44;;;;;;;39.17;11.50;;;;;;;3.43;100.00;98882.25;5000500;28;20160;-55
2022/03/25 01:41:10;;;;;;;44.90;12.50;;;;;;;3.54;100.00;98879.69;5000982;28;20451;-57
2022/03/25 01:43:36;;;;;;;31.80;9.43;;;;;;;3.83;100.00;98876.28;5003376;28;20033;-55
2022/03/25 01:46:01;;;;;;;38.63;11.77;;;;;;;3.28;100.00;98872.78;4998570;28;20026;-55
2022/03/25 01:48:27;;;;;;;37.47;11.65;;;;;;;3.25;100.00;98877.94;5000210;28;20525;-56
2022/03/25 01:50:53;;;;;;;43.20;11.85;;;;;;;3.30;100.00;98882.25;4999860;28;20107;-57
2022/03/25 01:53:23;;;;;;;40.58;12.05;;;;;;;3.33;100.00;98877.06;5005233;28;20538;-56
2022/03/25 01:55:56;;;;;;;38.13;11.43;;;;;;;3.15;100.00;98871.03;5000987;28;20036;-57
2022/03/25 01:58:23;;;;;;;39.53;11.38;;;;;;;3.39;100.00;98879.69;5001089;28;20096;-56
2022/03/25 02:00:49;;;;;;;27.60;6.93;;;;;;;4.86;100.00;98868.34;4996227;28;20037;-54
2022/03/25 02:03:16;;;;;;;25.17;6.82;;;;;;;5.17;100.00;98876.81;5000475;28;20026;-54
2022/03/25 02:05:43;;;;;;;28.33;7.95;;;;;;;4.59;100.00;98872.72;5000963;28;20555;-55
2022/03/25 02:08:09;;;;;;;28.48;7.13;;;;;;;4.76;100.00;98870.13;5000296;28;20041;-55
2022/03/25 02:10:34;;;;;;;39.92;8.07;;;;;;;4.95;100.00;98867.44;5000179;28;20037;-55
2022/03/25 02:13:00;;;;;;;28.85;7.70;;;;;;;4.90;100.00;98866.59;5001610;28;20032;-56
2022/03/25 02:15:36;;;;;;;31.70;8.15;;;;;;;4.49;100.00;98871.06;5003975;28;20041;-55
2022/03/25 02:18:05;;;;;;;32.50;8.77;;;;;;;4.43;100.00;98864.19;5001887;28;20018;-54
2022/03/25 02:20:30;;;;;;;32.30;7.47;;;;;;;4.77;100.00;98864.06;5000992;28;20037;-55
2022/03/25 02:22:56;;;;;;;38.33;11.57;;;;;;;3.82;100.00;98869.41;4999395;28;20022;-56
2022/03/25 02:25:23;;;;;;;35.50;10.73;;;;;;;3.64;100.00;98872.84;4994848;28;20028;-55
2022/03/25 02:27:48;;;;;;;32.78;9.88;;;;;;;3.63;100.00;98873.69;4998753;28;21020;-57
2022/03/25 02:30:14;;;;;;;38.95;10.13;;;;;;;3.67;100.00;98876.28;5000880;28;20108;-55
2022/03/25 02:32:42;;;;;;;34.50;10.93;;;;;;;3.82;100.00;98877.16;5002507;28;20080;-56
2022/03/25 02:35:08;;;;;;;32.67;8.40;;;;;;;3.58;100.00;98870.25;4999007;28;20040;-56
2022/03/25 02:37:34;;;;;;;37.55;10.63;;;;;;;4.24;100.00;98875.41;5001321;28;20030;-54
2022/03/25 02:39:59;;;;;;;35.58;10.45;;;;;;;3.27;100.00;98865.03;4995569;28;20030;-54
2022/03/25 02:42:24;;;;;;;30.67;11.25;;;;;;;3.27;100.00;98870.19;4995526;28;20635;-55
2022/03/25 02:44:50;;;;;;;50.95;10.85;;;;;;;3.41;100.00;98870.22;4996744;28;20022;-55
2022/03/25 02:47:16;;;;;;;38.42;11.10;;;;;;;3.41;100.00;98872.81;5001474;28;20030;-55
2022/03/25 02:49:42;;;;;;;38.65;11.77;;;;;;;3.01;100.00;98873.56;5000507;28;20550;-55
2022/03/25 02:52:07;;;;;;;24.45;6.63;;;;;;;4.01;100.00;98875.44;4998074;28;20046;-55
2022/03/25 02:54:33;;;;;;;40.67;11.23;;;;;;;2.53;100.00;98874.22;5001851;28;20032;-57
2022/03/25 02:56:59;;;;;;;45.08;11.40;;;;;;;2.58;100.00;98878.53;4999023;28;20699;-55
2022/03/25 02:59:25;;;;;;;32.78;9.63;;;;;;;2.70;100.00;98880.31;5002071;28;20025;-56
2022/03/25 03:01:51;;;;;;;42.58;12.07;;;;;;;2.15;100.00;98872.28;4999554;28;20653;-54
2022/03/25 03:04:17;;;;;;;45.38;12.38;;;;;;;2.19;100.00;98874.00;4998695;28;20594;-54
2022/03/25 03:06:43;;;;;;;43.13;11.40;;;;;;;2.54;100.00;98876.81;4997653;28;20286;-55
2022/03/25 03:09:10;;;;;;;39.85;11.13;;;;;;;2.20;100.00;98874.03;4998480;28;20030;-54
2022/03/25 03:11:35;;;;;;;34.03;10.40;;;;;;;2.28;100.00;98871.53;4997682;28;20999;-55
2022/03/25 03:14:01;;;;;;;44.22;10.48;;;;;;;2.96;100.00;98876.97;5001124;28;20022;-54
2022/03/25 03:16:26;;;;;;;34.17;9.45;;;;;;;3.36;100.00;98872.78;5003289;28;20057;-54
2022/03/25 03:18:52;;;;;;;33.75;7.72;;;;;;;4.06;100.00;98884.00;5005350;28;20102;-55
2022/03/25 03:21:17;;;;;;;49.20;12.60;;;;;;;3.57;100.00;98869.41;5004105;28;20068;-55
2022/03/25 03:23:43;;;;;;;30.23;8.88;;;;;;;3.73;100.00;98869.41;5007933;28;20109;-54
2022/03/25 03:26:09;;;;;;;33.72;7.47;;;;;;;4.85;100.00;98876.09;5006372;28;20038;-54
2022/03/25 03:28:34;;;;;;;31.90;7.57;;;;;;;3.99;100.00;98878.03;5001679;28;20116;-56
2022/03/25 03:30:59;;;;;;;32.75;8.07;;;;;;;4.46;100.00;98872.78;5000007;28;20033;-54
2022/03/25 03:33:25;;;;;;;33.10;8.60;;;;;;;4.17;100.00;98873.69;5000216;28;20017;-54
2022/03/25 03:35:50;;;;;;;36.22;8.98;;;;;;;4.05;100.00;98883.16;5001108;28;20573;-56
2022/03/25 03:38:15;;;;;;;32.40;7.75;;;;;;;4.17;100.00;98884.00;5001548;28;20026;-55
2022/03/25 03:40:41;;;;;;;31.33;7.80;;;;;;;4.34;100.00;98879.69;5001585;28;20090;-55
2022/03/25 03:43:06;;;;;;;41.28;11.93;;;;;;;3.19;100.00;98877.91;4998456;28;20857;-55
2022/03/25 03:45:32;;;;;;;33.15;9.40;;;;;;;2.93;100.00;98879.56;5002225;28;20448;-54
2022/03/25 03:47:57;;;;;;;29.13;8.50;;;;;;;3.76;100.00;98875.41;4997323;28;20054;-53
2022/03/25 03:50:24;;;;;;;43.25;11.60;;;;;;;2.69;100.00;98878.59;4994133;28;20042;-54
2022/03/25 03:52:50;;;;;;;38.58;10.80;;;;;;;3.26;100.00;98882.22;5001028;28;20018;-55
2022/03/25 03:55:16;;;;;;;39.33;9.35;;;;;;;3.17;100.00;98884.78;5001718;28;20021;-54
2022/03/25 03:57:41;;;;;;;36.78;9.88;;;;;;;2.79;100.00;98877.78;5003481;28;20730;-54
2022/03/25 04:00:11;;;;;;;32.72;9.40;;;;;;;3.53;100.00;98867.69;5000548;28;20029;-54
2022/03/25 04:02:37;;;;;;;33.05;8.88;;;;;;;3.94;100.00;98872.00;5005058;28;20029;-53
2022/03/25 04:05:03;;;;;;;32.58;8.40;;;;;;;4.24;100.00;98883.16;5003751;28;20029;-56
2022/03/25 04:07:28;;;;;;;40.47;9.10;;;;;;;4.15;100.00;98876.25;4998998;28;21004;-54
2022/03/25 04:09:54;;;;;;;34.60;10.80;;;;;;;3.35;100.00;98873.66;5004061;28;20472;-54
2022/03/25 04:12:19;;;;;;;33.42;10.02;;;;;;;3.79;100.00;98875.44;5003768;28;20045;-55
2022/03/25 04:14:44;;;;;;;48.42;11.82;;;;;;;3.45;100.00;98877.13;5008188;28;20052;-56
2022/03/25 04:17:11;;;;;;;31.60;8.10;;;;;;;3.43;100.00;98884.00;5005865;28;20060;-56
2022/03/25 04:19:36;;;;;;;37.47;8.38;;;;;;;3.73;100.00;98883.19;4999116;28;20040;-55
2022/03/25 04:22:02;;;;;;;31.13;8.43;;;;;;;4.13;100.00;98879.72;5000436;28;20065;-55
2022/03/25 04:24:27;;;;;;;34.50;8.32;;;;;;;3.48;100.00;98879.72;5001673;28;20056;-56
2022/03/25 04:26:53;;;;;;;41.70;12.43;;;;;;;2.94;100.00;98876.13;5002344;28;20068;-55
2022/03/25 04:29:18;;;;;;;39.72;11.48;;;;;;;2.57;100.00;98881.09;5005208;28;20017;-55
2022/03/25 04:31:44;;;;;;;37.97;7.45;;;;;;;4.22;100.00;98879.72;5001962;28;20034;-55
2022/03/25 04:34:10;;;;;;;36.10;12.13;;;;;;;2.35;100.00;98878.41;5003321;28;20029;-56
2022/03/25 04:36:35;;;;;;;32.92;8.85;;;;;;;2.68;100.00;98887.16;5002839;28;20042;-54
2022/03/25 04:39:01;;;;;;;32.45;7.65;;;;;;;3.80;100.00;98891.78;5002890;28;20061;-54
2022/03/25 04:41:26;;;;;;;30.10;7.20;;;;;;;3.62;100.00;98888.34;4999895;28;20038;-54
2022/03/25 04:43:52;;;;;;;32.35;7.43;;;;;;;4.18;100.00;98893.50;5003886;28;20105;-55
2022/03/25 04:46:17;;;;;;;31.88;9.05;;;;;;;2.72;100.00;98891.50;5002520;28;20042;-55
2022/03/25 04:48:43;;;;;;;39.33;9.57;;;;;;;2.64;100.00;98882.88;5001386;28;20045;-54
2022/03/25 04:51:08;;;;;;;39.72;12.35;;;;;;;2.19;100.00;98885.19;4999174;28;20074;-54
2022/03/25 04:53:34;;;;;;;34.70;9.93;;;;;;;2.97;100.00;98886.44;4999661;28;20507;-54
2022/03/25 04:56:00;;;;;;;49.78;11.60;;;;;;;3.23;100.00;98895.09;4998509;28;20070;-58
2022/03/25 04:58:26;;;;;;;34.20;8.00;;;;;;;3.98;100.00;98889.19;4999729;28;20144;-57
2022/03/25 05:00:51;;;;;;;42.03;9.23;;;;;;;3.81;100.00;98888.34;5001863;28;20038;-56
2022/03/25 05:03:17;;;;;;;36.47;9.05;;;;;;;3.44;100.00;98888.31;5001028;28;20613;-58
2022/03/25 05:05:43;;;;;;;33.95;7.82;;;;;;;3.78;100.00;98896.06;4998541;28;20090;-56
2022/03/25 05:08:09;;;;;;;37.58;8.55;;;;;;;3.48;100.00;98897.75;4998686;28;20042;-57
2022/03/25 05:10:35;;;;;;;39.78;11.90;;;;;;;2.68;100.00;98900.06;5002516;28;20652;-57
2022/03/25 05:13:01;;;;;;;51.38;11.48;;;;;;;3.40;100.00;98899.44;4999086;28;20038;-56
2022/03/25 05:15:26;;;;;;;50.15;13.50;;;;;;;2.05;100.00;98895.38;4999672;28;20042;-57
2022/03/25 05:17:52;;;;;;;38.70;12.57;;;;;;;2.19;100.00;98892.91;4995296;28;20046;-54
2022/03/25 05:20:22;;;;;;;35.70;10.30;;;;;;;3.11;100.00;98895.09;4999094;28;20026;-55
2022/03/25 05:22:49;;;;;;;45.38;13.10;;;;;;;2.62;100.00;98900.03;5002896;28;20034;-56
2022/03/25 05:25:16;;;;;;;43.45;13.25;;;;;;;2.16;100.00;98899.75;5001877;28;20664;-54
2022/03/25 05:27:52;;;;;;;42.90;10.25;;;;;;;2.94;100.00;98909.63;5004127;28;20069;-56
2022/03/25 05:30:24;;;;;;;36.85;9.80;;;;;;;3.39;100.00;98900.31;5000276;28;20029;-54
2022/03/25 05:32:50;;;;;;;40.45;11.52;;;;;;;3.25;100.00;98908.91;5000244;28;20051;-55
2022/03/25 05:35:17;;;;;;;36.92;11.00;;;;;;;3.39;100.00;98905.47;5002657;28;20064;-55
2022/03/25 05:37:42;;;;;;;45.15;11.02;;;;;;;3.72;100.00;98915.00;5000441;28;20045;-56
2022/03/25 05:40:09;;;;;;;49.85;12.90;;;;;;;3.59;100.00;98914.13;4994273;28;20042;-55
2022/03/25 05:42:35;;;;;;;44.10;13.18;;;;;;;3.58;100.00;98922.69;4997681;28;20412;-56
2022/03/25 05:45:02;;;;;;;49.05;13.77;;;;;;;3.63;100.00;98922.72;4994770;28;20913;-56
2022/03/25 05:47:27;;;;;;;40.58;13.07;;;;;;;3.90;100.00;98919.31;4997419;28;20029;-55
2022/03/25 05:49:53;;;;;;;37.45;11.85;;;;;;;4.70;100.00;98919.22;4995806;28;20742;-56
2022/03/25 05:52:18;;;;;;;43.25;13.48;;;;;;;4.55;100.00;98934.78;4997376;28;20133;-56
2022/03/25 05:54:44;;;;;;;54.65;15.25;;;;;;;5.28;100.00;98928.50;4994794;28;20022;-57
2022/03/25 05:57:10;;;;;;;43.33;15.02;;;;;;;4.19;100.00;98939.09;4993551;28;20037;-55
2022/03/25 05:59:35;;;;;;;40.28;15.13;;;;;;;4.39;100.00;98939.09;4998430;28;20032;-56
2022/03/25 06:02:00;;;;;;;47.90;14.98;;;;;;;4.63;100.00;98935.59;5000519;28;20072;-55
2022/03/25 06:04:26;;;;;;;44.95;14.50;;;;;;;4.55;100.00;98934.78;4998002;28;20078;-55
2022/03/25 06:06:54;;;;;;;38.78;14.23;;;;;;;5.13;100.00;98931.16;4997535;28;20034;-55
2022/03/25 06:09:19;;;;;;;47.88;15.25;;;;;;;6.13;100.00;98923.66;4995623;28;20034;-55
2022/03/25 06:11:45;;;;;;;46.38;14.38;;;;;;;6.44;100.00;98931.16;4995884;28;20064;-57
2022/03/25 06:14:11;;;;;;;45.28;15.55;;;;;;;6.51;100.00;98931.97;4999953;28;20030;-55
2022/03/25 06:16:36;;;;;;;42.83;14.68;;;;;;;6.70;100.00;98933.50;5000234;28;20038;-57
2022/03/25 06:19:02;;;;;;;41.88;14.65;;;;;;;6.41;100.00;98938.94;4996507;28;20144;-56
2022/03/25 06:21:27;;;;;;;42.42;15.20;;;;;;;7.74;91.37;98940.88;4998291;28;20044;-56
2022/03/25 06:23:53;;;;;;;36.75;14.77;;;;;;;7.18;95.30;98939.88;4999870;28;20130;-55
2022/03/25 06:26:18;;;;;;;38.75;14.68;;;;;;;8.04;87.51;98939.53;5001471;28;20041;-55
2022/03/25 06:28:44;;;;;;;36.45;13.50;;;;;;;8.48;81.58;98939.72;5001693;28;20160;-56
2022/03/25 06:31:09;;;;;;;48.65;15.95;;;;;;;8.73;74.55;98934.94;5000139;28;20038;-56
2022/03/25 06:33:37;;;;;;;37.63;14.43;;;;;;;9.52;70.02;98933.34;5001487;28;20065;-56
2022/03/25 06:36:07;;;;;;;35.63;14.00;;;;;;;10.61;66.90;98936.84;4997885;28;20906;-57
2022/03/25 06:38:33;;;;;;;46.30;15.15;;;;;;;11.26;62.35;98935.06;4997601;28;20038;-57
2022/03/25 06:41:01;;;;;;;37.88;15.30;;;;;;;11.40;58.25;98941.69;4999688;28;20056;-56
2022/03/25 06:43:27;;;;;;;38.40;15.48;;;;;;;11.93;56.58;98940.06;4999459;28;20448;-56
2022/03/25 06:45:52;;;;;;;35.90;14.60;;;;;;;12.46;55.58;98936.63;4997841;28;20033;-57
2022/03/25 06:48:18;;;;;;;32.55;13.00;;;;;;;13.75;54.59;98936.34;5001827;28;20034;-56
2022/03/25 06:50:43;;;;;;;40.03;13.88;;;;;;;13.39;53.23;98943.84;5000981;28;20399;-56
2022/03/25 06:53:10;;;;;;;34.92;14.50;;;;;;;14.23;51.57;98935.28;5004961;28;20657;-57
2022/03/25 06:55:36;;;;;;;33.70;14.57;;;;;;;14.87;47.08;98940.53;5007088;28;20435;-57
2022/03/25 06:58:02;;;;;;;34.85;15.15;;;;;;;14.67;46.97;98944.03;5005404;28;20041;-56
2022/03/25 07:00:28;;;;;;;26.70;13.48;;;;;;;16.27;44.84;98945.50;5002596;28;20077;-57
2022/03/25 07:02:53;;;;;;;34.00;14.60;;;;;;;16.42;42.88;98943.03;5004460;28;20025;-56
2022/03/25 07:05:19;;;;;;;29.83;14.93;;;;;;;17.79;41.10;98939.34;5005100;28;20082;-57
2022/03/25 07:07:45;;;;;;;30.05;14.80;;;;;;;18.10;39.85;98942.91;5005871;28;20037;-56
2022/03/25 07:10:12;;;;;;;24.98;14.85;;;;;;;17.17;40.07;98946.22;5006845;28;20018;-57
2022/03/25 07:12:40;;;;;;;29.42;15.38;;;;;;;19.52;37.42;98945.09;5002289;28;20083;-58
2022/03/25 07:15:07;;;;;;;31.63;16.42;;;;;;;18.70;37.56;98942.09;5003983;28;20030;-57
2022/03/25 07:17:33;;;;;;;31.60;16.95;;;;;;;19.19;37.05;98946.28;5004449;28;20744;-58
2022/03/25 07:19:58;;;;;;;31.10;16.80;;;;;;;19.25;36.10;98949.38;5006048;28;20040;-55
2022/03/25 07:22:23;;;;;;;33.38;16.90;;;;;;;20.13;36.17;98951.81;5002071;28;20046;-56
2022/03/25 07:24:48;;;;;;;34.78;17.52;;;;;;;20.13;35.80;98951.81;5001401;28;20064;-56
2022/03/25 07:27:14;;;;;;;32.58;17.50;;;;;;;20.64;34.53;98960.88;5000678;28;20672;-57
2022/03/25 07:29:39;;;;;;;31.48;17.52;;;;;;;21.34;33.43;98953.41;5000623;28;20582;-57
2022/03/25 07:32:05;;;;;;;35.40;18.73;;;;;;;20.19;34.80;98955.84;5000903;28;20038;-57
2022/03/25 07:34:31;;;;;;;33.28;18.17;;;;;;;20.65;34.26;98957.28;5006057;28;20032;-57
2022/03/25 07:36:57;;;;;;;29.95;18.92;;;;;;;20.65;34.20;98957.28;5004912;28;20045;-56
2022/03/25 07:39:23;;;;;;;32.95;18.52;;;;;;;21.87;32.41;98947.91;5004844;28;20124;-55
2022/03/25 07:41:48;;;;;;;32.30;18.80;;;;;;;21.52;32.65;98951.28;4998436;28;20388;-58
2022/03/25 07:44:13;;;;;;;29.65;18.20;;;;;;;22.52;31.62;98954.66;5001533;28;20029;-59
2022/03/25 07:46:39;;;;;;;32.35;18.75;;;;;;;22.49;31.91;98954.03;5005813;28;20152;-58
2022/03/25 07:49:06;;;;;;;32.80;18.67;;;;;;;23.05;31.55;98950.72;5004357;28;20598;-56
2022/03/25 07:51:31;;;;;;;30.08;18.50;;;;;;;23.93;29.95;98957.97;5000454;28;20037;-57
2022/03/25 07:53:57;;;;;;;29.50;17.80;;;;;;;23.28;31.05;98962.22;4999812;28;20037;-56
2022/03/25 07:56:22;;;;;;;32.15;18.63;;;;;;;22.17;33.10;98956.41;5002563;28;20034;-56
2022/03/25 07:58:47;;;;;;;30.35;18.75;;;;;;;23.78;30.15;98961.81;5007835;28;20026;-55
2022/03/25 08:01:13;;;;;;;33.60;19.48;;;;;;;24.88;29.15;98961.75;5000184;28;20034;-56
2022/03/25 08:03:38;;;;;;;30.45;18.50;;;;;;;23.85;31.84;98952.41;5000068;28;20036;-56
2022/03/25 08:06:03;;;;;;;32.03;19.63;;;;;;;24.14;29.42;98955.38;5001185;28;20568;-56
2022/03/25 08:08:29;;;;;;;34.08;20.48;;;;;;;24.33;29.75;98954.69;5002253;28;20123;-56
2022/03/25 08:10:56;;;;;;;34.20;20.13;;;;;;;25.81;27.93;98952.78;5000652;28;20049;-54
2022/03/25 08:13:22;;;;;;;33.80;20.33;;;;;;;23.81;28.76;98958.97;5002834;28;20041;-57
2022/03/25 08:15:47;;;;;;;34.78;21.00;;;;;;;23.55;29.58;98951.19;5000140;28;20057;-55
2022/03/25 08:18:19;;;;;;;30.02;20.75;;;;;;;24.90;27.62;98957.13;5003997;28;20137;-57
2022/03/25 08:20:46;;;;;;;30.52;20.25;;;;;;;22.54;30.23;98951.03;4998086;28;20026;-54
2022/03/25 08:27:48;;;;;;;32.88;20.63;;;;;;;22.49;29.82;98949.53;5001383;28;20083;-56
2022/03/25 08:28:46;;;;;;;36.63;20.58;;;;;;;25.90;26.64;98951.13;5004907;28;20087;-58
2022/03/25 08:31:13;;;;;;;31.48;19.50;;;;;;;25.01;26.65;98946.34;5002661;28;20042;-56
2022/03/25 08:33:38;;;;;;;32.33;20.52;;;;;;;26.29;25.78;98946.69;5004809;28;20041;-57
2022/03/25 08:36:04;;;;;;;30.95;20.50;;;;;;;26.52;25.90;98952.63;4997068;28;20061;-55
2022/03/25 08:38:29;;;;;;;31.52;20.50;;;;;;;25.17;27.10;98952.06;4998743;28;20100;-56
2022/03/25 08:40:54;;;;;;;36.75;20.83;;;;;;;24.45;26.66;98955.50;5001063;28;20714;-56
2022/03/25 08:43:20;;;;;;;31.63;19.83;;;;;;;27.01;24.47;98947.22;5004295;28;20209;-56
2022/03/25 08:45:45;;;;;;;36.42;20.75;;;;;;;25.16;24.97;98947.72;5004979;28;20047;-56
2022/03/25 08:48:10;;;;;;;30.08;20.20;;;;;;;24.98;25.83;98952.81;5005949;28;20038;-56
2022/03/25 08:50:36;;;;;;;34.13;21.08;;;;;;;26.04;25.01;98944.56;4998233;28;20045;-57
2022/03/25 08:53:01;;;;;;;32.47;19.58;;;;;;;27.11;23.87;98945.38;5002616;28;20101;-55
2022/03/25 08:55:26;;;;;;;31.55;20.05;;;;;;;25.83;24.93;98937.44;5002925;28;20038;-57
2022/03/25 08:57:52;;;;;;;35.15;21.20;;;;;;;26.30;25.36;98942.19;5000374;28;20022;-55
2022/03/25 09:00:19;;;;;;;39.78;20.60;;;;;;;27.62;23.51;98945.88;5001415;28;20022;-57
2022/03/25 09:02:46;;;;;;;28.73;18.73;;;;;;;26.73;24.38;98948.97;5001751;28;20561;-57
2022/03/25 09:05:12;;;;;;;33.80;20.52;;;;;;;23.93;27.00;98946.44;5001358;28;20463;-57
2022/03/25 09:07:38;;;;;;;31.67;20.55;;;;;;;25.08;25.85;98944.84;5003506;28;20684;-56
2022/03/25 09:10:05;;;;;;;34.55;20.88;;;;;;;24.13;26.41;98952.81;5001604;28;20100;-56
2022/03/25 09:12:30;;;;;;;32.28;20.65;;;;;;;23.71;27.24;98947.31;4999836;28;20602;-56
2022/03/25 09:14:56;;;;;;;33.80;19.17;;;;;;;25.09;26.52;98951.91;4998264;28;20114;-57
2022/03/25 09:17:21;;;;;;;34.22;20.48;;;;;;;23.16;27.52;98953.38;4999374;28;20049;-56
2022/03/25 09:19:47;;;;;;;32.33;19.63;;;;;;;23.73;26.48;98956.88;5002770;28;20041;-55
2022/03/25 09:22:12;;;;;;;40.05;21.88;;;;;;;24.37;26.03;98956.16;5001687;28;20045;-57
2022/03/25 09:24:37;;;;;;;34.13;20.08;;;;;;;24.62;25.70;98949.63;4999711;28;20027;-55
2022/03/25 09:27:03;;;;;;;37.88;20.80;;;;;;;23.92;26.59;98961.59;4998662;28;20061;-56
2022/03/25 09:29:29;;;;;;;39.55;20.95;;;;;;;24.58;25.88;98948.19;5003779;28;20033;-56
2022/03/25 09:31:55;;;;;;;36.13;20.27;;;;;;;25.02;25.36;98951.56;5004568;28;20033;-57
2022/03/25 09:37:05;;;;;;;37.55;21.65;;;;;;;22.97;27.13;98955.72;4998593;28;20096;-56
2022/03/25 09:39:30;;;;;;;37.67;20.45;;;;;;;23.31;26.78;98947.84;5001088;28;20024;-55
2022/03/25 09:41:57;;;;;;;39.20;20.67;;;;;;;25.75;24.50;98953.31;5000597;28;20606;-57
2022/03/25 09:44:22;;;;;;;39.10;20.52;;;;;;;25.89;24.50;98947.59;5003781;28;20107;-56
2022/03/25 09:46:50;;;;;;;38.40;21.40;;;;;;;24.75;24.86;98952.09;4997161;28;20489;-56
2022/03/25 09:49:17;;;;;;;42.15;21.55;;;;;;;24.01;26.40;98950.19;4996561;28;20455;-56
2022/03/25 09:51:43;;;;;;;44.33;20.65;;;;;;;23.39;26.73;98948.91;4996943;28;20034;-57
2022/03/25 09:54:11;;;;;;;40.72;20.35;;;;;;;22.79;26.95;98956.19;4998447;28;20045;-55
2022/03/25 09:56:37;;;;;;;36.55;20.52;;;;;;;22.24;27.40;98950.53;4996985;28;20054;-57
2022/03/25 09:59:03;;;;;;;38.40;21.58;;;;;;;22.61;26.26;98949.63;5003244;28;20026;-56
2022/03/25 10:01:28;;;;;;;51.03;21.88;;;;;;;24.48;24.99;98936.56;4997874;28;20043;-57
2022/03/25 10:03:54;;;;;;;41.30;21.25;;;;;;;25.32;24.12;98936.56;5003683;28;20044;-56
2022/03/25 10:06:19;;;;;;;44.00;22.52;;;;;;;23.73;25.58;98938.25;4994422;28;20038;-56
2022/03/25 10:08:55;;;;;;;40.88;21.67;;;;;;;23.55;25.05;98937.06;4997450;28;20041;-57
2022/03/25 10:11:22;;;;;;;51.55;21.35;;;;;;;22.77;25.85;98944.78;5004151;28;20335;-56
2022/03/25 10:13:50;;;;;;;42.05;21.92;;;;;;;23.06;26.05;98945.25;5000226;28;20033;-56
2022/03/25 10:16:31;;;;;;;41.78;21.58;;;;;;;23.42;24.87;98946.00;5002326;28;20072;-57
2022/03/25 10:18:58;;;;;;;41.90;22.15;;;;;;;22.45;25.66;98941.94;5000413;28;20030;-57
2022/03/25 10:21:24;;;;;;;44.70;21.40;;;;;;;23.06;25.91;98939.09;4995245;28;20041;-56
2022/03/25 10:23:49;;;;;;;44.67;23.25;;;;;;;22.20;25.65;98942.88;5007973;28;20034;-56
2022/03/25 10:26:15;;;;;;;43.10;21.95;;;;;;;20.79;26.90;98939.50;5005535;28;20087;-55
2022/03/25 10:28:42;;;;;;;41.15;21.65;;;;;;;22.06;26.00;98934.13;5008785;28;20018;-56
2022/03/25 10:31:17;;;;;;;45.28;23.00;;;;;;;21.78;26.52;98945.91;5009186;28;20037;-55
2022/03/25 10:33:50;;;;;;;45.90;22.60;;;;;;;21.25;27.01;98945.25;5006922;28;20026;-55
2022/03/25 10:36:20;;;;;;;46.58;21.45;;;;;;;21.45;26.63;98935.88;5003743;28;20041;-56
2022/03/25 10:39:01;;;;;;;49.90;23.52;;;;;;;20.86;27.03;98934.63;5007342;28;20029;-56
2022/03/25 10:41:39;;;;;;;49.88;22.08;;;;;;;21.26;26.83;98937.16;5004565;28;20049;-55
2022/03/25 10:44:06;;;;;;;45.83;21.92;;;;;;;22.58;25.86;98931.22;5009365;28;20087;-56
2022/03/25 10:46:39;;;;;;;47.70;22.15;;;;;;;22.83;25.93;98925.72;5002351;28;20377;-57
2022/03/25 10:49:11;;;;;;;42.38;20.73;;;;;;;22.72;25.72;98928.38;5005185;28;20516;-56
2022/03/25 10:51:39;;;;;;;43.58;21.55;;;;;;;21.88;26.88;98931.00;5010289;28;20072;-55
2022/03/25 10:54:14;;;;;;;40.25;21.05;;;;;;;22.14;25.71;98934.38;5006258;28;20022;-56
2022/03/25 10:56:44;;;;;;;42.63;21.98;;;;;;;22.20;25.68;98932.25;5004897;28;20056;-56
2022/03/25 10:59:20;;;;;;;43.90;21.05;;;;;;;21.99;26.47;98924.06;5005646;28;20175;-55
2022/03/25 11:01:47;;;;;;;45.22;22.58;;;;;;;22.13;25.52;98931.88;5006268;28;20979;-56
2022/03/25 11:04:14;;;;;;;43.28;20.45;;;;;;;21.08;27.65;98922.53;5007859;28;20805;-55
2022/03/25 11:06:42;;;;;;;42.17;21.77;;;;;;;20.81;27.50;98931.44;5003434;28;20050;-55
2022/03/25 11:09:09;;;;;;;47.08;22.77;;;;;;;21.94;26.91;98922.56;5009806;28;20112;-55
2022/03/25 11:11:35;;;;;;;49.03;22.55;;;;;;;22.30;25.67;98922.66;5009221;28;20041;-55
2022/03/25 11:14:04;;;;;;;42.63;21.52;;;;;;;21.74;26.62;98916.06;5000635;28;20030;-55
2022/03/25 11:16:32;;;;;;;48.53;22.50;;;;;;;21.90;25.77;98925.56;5008207;28;20042;-56
2022/03/25 11:18:57;;;;;;;49.35;22.60;;;;;;;20.96;26.84;98925.06;5007543;28;20037;-56
2022/03/25 11:21:25;;;;;;;44.90;20.60;;;;;;;20.56;27.39;98927.75;5009377;28;20034;-55